createdAt,value
2022-07-28T00:00:08.262Z,97262.00
2022-07-28T00:02:35.627Z,97264.00
2022-07-28T00:05:03.216Z,97262.00
2022-07-28T00:07:30.045Z,97255.00
2022-07-28T00:10:00.282Z,97249.00
2022-07-28T00:12:27.998Z,97249.00
2022-07-28T00:14:54.951Z,97244.00
2022-07-28T00:17:21.820Z,97248.00
2022-07-28T00:19:48.657Z,97245.00
2022-07-28T00:22:15.508Z,97245.00
2022-07-28T00:24:42.369Z,97242.00
2022-07-28T00:27:09.313Z,97249.00
2022-07-28T00:29:49.346Z,97241.00
2022-07-28T00:32:18.860Z,97240.00
2022-07-28T00:34:45.906Z,97228.00
2022-07-28T00:37:14.437Z,97232.00
2022-07-28T00:39:42.731Z,97233.00
2022-07-28T00:42:09.705Z,97233.00
2022-07-28T00:44:39.000Z,97223.00
2022-07-28T00:47:05.952Z,97237.00
2022-07-28T00:49:32.940Z,97238.00
2022-07-28T00:52:00.959Z,97239.00
2022-07-28T00:54:27.915Z,97239.00
2022-07-28T00:56:54.745Z,97239.00
2022-07-28T00:59:21.595Z,97235.00
2022-07-28T01:01:48.995Z,97240.00
2022-07-28T01:04:16.921Z,97230.00
2022-07-28T01:07:04.529Z,97230.00
2022-07-28T01:10:02.341Z,97222.00
2022-07-28T01:12:29.101Z,97228.00
2022-07-28T01:15:19.878Z,97227.00
2022-07-28T01:18:15.669Z,97220.00
2022-07-28T01:20:47.359Z,97228.00
2022-07-28T01:23:32.518Z,97226.00
2022-07-28T01:26:40.752Z,97227.00
2022-07-28T01:30:04.514Z,97228.00
2022-07-28T01:33:02.668Z,97224.00
2022-07-28T01:35:41.723Z,97227.00
2022-07-28T01:38:11.458Z,97220.00
2022-07-28T01:40:42.773Z,97225.00
2022-07-28T01:43:14.867Z,97222.00
2022-07-28T01:45:43.654Z,97217.00
2022-07-28T01:48:12.434Z,97209.00
2022-07-28T01:50:40.050Z,97224.00
2022-07-28T01:53:11.044Z,97216.00
2022-07-28T01:55:39.936Z,97216.00
2022-07-28T01:58:08.136Z,97203.00
2022-07-28T02:00:37.968Z,97206.00
2022-07-28T02:03:07.046Z,97201.00
2022-07-28T02:05:36.587Z,97201.00
2022-07-28T02:08:05.391Z,97204.00
2022-07-28T02:10:35.016Z,97202.00
2022-07-28T02:13:02.979Z,97199.00
2022-07-28T02:15:32.194Z,97202.00
2022-07-28T02:18:00.120Z,97194.00
2022-07-28T02:20:27.288Z,97194.00
2022-07-28T02:22:55.190Z,97191.00
2022-07-28T02:25:22.387Z,97197.00
2022-07-28T02:28:07.934Z,97194.00
2022-07-28T02:30:41.921Z,97201.00
2022-07-28T02:33:57.770Z,97192.00
2022-07-28T02:36:27.207Z,97191.00
2022-07-28T02:39:02.054Z,97186.00
2022-07-28T02:41:32.337Z,97180.00
2022-07-28T02:44:04.358Z,97191.00
2022-07-28T02:46:43.100Z,97187.00
2022-07-28T02:49:16.950Z,97191.00
2022-07-28T02:51:45.860Z,97189.00
2022-07-28T02:54:14.972Z,97184.00
2022-07-28T02:56:42.287Z,97188.00
2022-07-28T02:59:22.046Z,97190.00
2022-07-28T03:01:50.651Z,97189.00
2022-07-28T03:04:38.789Z,97203.00
2022-07-28T03:07:06.686Z,97199.00
2022-07-28T03:09:45.868Z,97206.00
2022-07-28T03:12:13.335Z,97204.00
2022-07-28T03:14:40.840Z,97205.00
2022-07-28T03:17:08.980Z,97206.00
2022-07-28T03:19:35.938Z,97216.00
2022-07-28T03:22:03.061Z,97209.00
2022-07-28T03:24:35.093Z,97204.00
2022-07-28T03:27:11.996Z,97210.00
2022-07-28T03:29:40.555Z,97211.00
2022-07-28T03:32:08.568Z,97216.00
2022-07-28T03:34:35.742Z,97214.00
2022-07-28T03:37:16.931Z,97216.00
2022-07-28T03:39:51.201Z,97217.00
2022-07-28T03:42:19.789Z,97220.00
2022-07-28T03:44:48.216Z,97220.00
2022-07-28T03:47:15.853Z,97218.00
2022-07-28T03:49:46.342Z,97220.00
2022-07-28T03:52:13.344Z,97213.00
2022-07-28T03:54:40.337Z,97224.00
2022-07-28T03:57:07.256Z,97218.00
2022-07-28T03:59:34.166Z,97218.00
2022-07-28T04:02:01.060Z,97218.00
2022-07-28T04:04:29.199Z,97224.00
2022-07-28T04:06:56.025Z,97226.00
2022-07-28T04:09:23.200Z,97229.00
2022-07-28T04:11:50.056Z,97226.00
2022-07-28T04:14:18.255Z,97224.00
2022-07-28T04:16:45.620Z,97223.00
2022-07-28T04:19:12.542Z,97216.00
2022-07-28T04:21:39.432Z,97222.00
2022-07-28T04:24:08.789Z,97231.00
2022-07-28T04:26:35.621Z,97230.00
2022-07-28T04:29:03.380Z,97221.00
2022-07-28T04:31:30.785Z,97221.00
2022-07-28T04:33:57.736Z,97221.00
2022-07-28T04:36:25.960Z,97217.00
2022-07-28T04:38:53.110Z,97222.00
2022-07-28T04:41:19.979Z,97223.00
2022-07-28T04:43:46.800Z,97218.00
2022-07-28T04:46:15.250Z,97219.00
2022-07-28T04:48:42.519Z,97220.00
2022-07-28T04:51:10.059Z,97222.00
2022-07-28T04:53:36.920Z,97211.00
2022-07-28T04:56:04.237Z,97214.00
2022-07-28T04:58:31.611Z,97220.00
2022-07-28T05:00:59.980Z,97220.00
2022-07-28T05:03:27.028Z,97219.00
2022-07-28T05:05:55.105Z,97211.00
2022-07-28T05:08:25.665Z,97202.00
2022-07-28T05:10:54.920Z,97204.00
2022-07-28T05:13:21.796Z,97205.00
2022-07-28T05:15:48.703Z,97219.00
2022-07-28T05:18:15.562Z,97217.00
2022-07-28T05:20:42.760Z,97220.00
2022-07-28T05:23:11.642Z,97219.00
2022-07-28T05:25:39.243Z,97224.00
2022-07-28T05:28:06.068Z,97232.00
2022-07-28T05:30:32.985Z,97238.00
2022-07-28T05:33:01.865Z,97241.00
2022-07-28T05:35:29.087Z,97235.00
2022-07-28T05:37:55.928Z,97235.00
2022-07-28T05:40:22.750Z,97229.00
2022-07-28T05:42:49.720Z,97226.00
2022-07-28T05:45:17.773Z,97223.00
2022-07-28T05:47:47.268Z,97219.00
2022-07-28T05:50:20.587Z,97230.00
2022-07-28T05:52:48.379Z,97229.00
2022-07-28T05:55:16.393Z,97231.00
2022-07-28T05:57:43.684Z,97235.00
2022-07-28T06:00:22.084Z,97230.00
2022-07-28T06:02:50.777Z,97226.00
2022-07-28T06:05:23.264Z,97234.00
2022-07-28T06:07:51.553Z,97229.00
2022-07-28T06:10:21.311Z,97222.00
2022-07-28T06:12:53.561Z,97216.00
2022-07-28T06:15:23.568Z,97227.00
2022-07-28T06:17:52.595Z,97229.00
2022-07-28T06:20:24.125Z,97222.00
2022-07-28T06:22:54.894Z,97231.00
2022-07-28T06:25:28.022Z,97231.00
2022-07-28T06:27:56.401Z,97230.00
2022-07-28T06:30:24.001Z,97232.00
2022-07-28T06:32:51.620Z,97239.00
2022-07-28T06:35:18.965Z,97240.00
2022-07-28T06:37:48.036Z,97244.00
2022-07-28T06:40:17.017Z,97245.00
2022-07-28T06:42:44.756Z,97234.00
2022-07-28T06:45:19.691Z,97234.00
2022-07-28T06:47:51.601Z,97239.00
2022-07-28T06:50:25.901Z,97239.00
2022-07-28T06:52:55.825Z,97227.00
2022-07-28T06:55:22.739Z,97234.00
2022-07-28T06:57:49.605Z,97237.00
2022-07-28T07:00:17.017Z,97231.00
2022-07-28T07:02:44.170Z,97233.00
2022-07-28T07:05:12.064Z,97231.00
2022-07-28T07:07:43.073Z,97226.00
2022-07-28T07:10:11.425Z,97224.00
2022-07-28T07:12:38.564Z,97233.00
2022-07-28T07:15:06.801Z,97227.00
2022-07-28T07:17:33.773Z,97221.00
2022-07-28T07:20:00.629Z,97221.00
2022-07-28T07:22:27.576Z,97218.00
2022-07-28T07:24:57.067Z,97219.00
2022-07-28T07:27:24.806Z,97230.00
2022-07-28T07:29:51.811Z,97223.00
2022-07-28T07:32:18.723Z,97232.00
2022-07-28T07:34:47.960Z,97225.00
2022-07-28T07:37:15.123Z,97228.00
2022-07-28T07:39:42.456Z,97219.00
2022-07-28T07:42:09.558Z,97229.00
2022-07-28T07:44:36.542Z,97226.00
2022-07-28T07:47:04.048Z,97231.00
2022-07-28T07:49:42.331Z,97222.00
2022-07-28T07:52:14.456Z,97224.00
2022-07-28T07:54:42.201Z,97220.00
2022-07-28T07:57:10.301Z,97223.00
2022-07-28T07:59:37.460Z,97216.00
2022-07-28T08:02:04.709Z,97221.00
2022-07-28T08:04:31.855Z,97224.00
2022-07-28T08:07:05.599Z,97217.00
2022-07-28T08:09:33.452Z,97213.00
2022-07-28T08:12:00.368Z,97202.00
2022-07-28T08:14:27.559Z,97206.00
2022-07-28T08:16:56.531Z,97199.00
2022-07-28T08:19:23.603Z,97209.00
2022-07-28T08:21:50.910Z,97203.00
2022-07-28T08:24:32.451Z,97197.00
2022-07-28T08:27:01.908Z,97198.00
2022-07-28T08:29:29.006Z,97205.00
2022-07-28T08:31:56.026Z,97198.00
2022-07-28T08:34:31.061Z,97201.00
2022-07-28T08:37:03.288Z,97204.00
2022-07-28T08:39:32.422Z,97201.00
2022-07-28T08:42:11.618Z,97211.00
2022-07-28T08:44:47.563Z,97213.00
2022-07-28T08:47:16.404Z,97209.00
2022-07-28T08:49:44.567Z,97206.00
2022-07-28T08:52:14.001Z,97204.00
2022-07-28T08:54:46.844Z,97201.00
2022-07-28T08:57:28.439Z,97204.00
2022-07-28T08:59:56.037Z,97203.00
2022-07-28T09:02:26.283Z,97203.00
2022-07-28T09:04:55.214Z,97196.00
2022-07-28T09:07:23.771Z,97202.00
2022-07-28T09:09:51.168Z,97200.00
2022-07-28T09:12:27.512Z,97194.00
2022-07-28T09:14:55.734Z,97187.00
2022-07-28T09:17:22.560Z,97191.00
2022-07-28T09:19:49.453Z,97193.00
2022-07-28T09:22:16.742Z,97201.00
2022-07-28T09:24:44.876Z,97196.00
2022-07-28T09:27:14.651Z,97203.00
2022-07-28T09:29:48.028Z,97189.00
2022-07-28T09:32:17.712Z,97192.00
2022-07-28T09:34:51.799Z,97194.00
2022-07-28T09:37:24.814Z,97199.00
2022-07-28T09:39:59.833Z,97193.00
2022-07-28T09:42:26.954Z,97191.00
2022-07-28T09:45:25.647Z,97191.00
2022-07-28T09:48:13.359Z,97180.00
2022-07-28T09:50:44.012Z,97185.00
2022-07-28T09:53:28.249Z,97179.00
2022-07-28T09:55:59.261Z,97178.00
2022-07-28T09:58:27.854Z,97172.00
2022-07-28T10:01:13.082Z,97171.00
2022-07-28T10:03:42.949Z,97168.00
2022-07-28T10:06:16.490Z,97171.00
2022-07-28T10:08:51.922Z,97166.00
2022-07-28T10:11:24.679Z,97164.00
2022-07-28T10:14:06.726Z,97158.00
2022-07-28T10:16:44.266Z,97163.00
2022-07-28T10:19:11.131Z,97150.00
2022-07-28T10:21:46.523Z,97153.00
2022-07-28T10:24:22.245Z,97154.00
2022-07-28T10:26:50.720Z,97149.00
2022-07-28T10:29:22.081Z,97142.00
2022-07-28T10:32:05.176Z,97138.00
2022-07-28T10:34:38.263Z,97134.00
2022-07-28T10:37:11.008Z,97138.00
2022-07-28T10:39:42.948Z,97135.00
2022-07-28T10:42:12.813Z,97138.00
2022-07-28T10:44:41.604Z,97133.00
2022-07-28T10:47:18.098Z,97130.00
2022-07-28T10:49:48.930Z,97138.00
2022-07-28T10:55:23.543Z,97128.00
2022-07-28T10:58:17.117Z,97123.00
2022-07-28T11:00:57.382Z,97126.00
2022-07-28T11:03:44.354Z,97123.00
2022-07-28T11:06:40.058Z,97125.00
2022-07-28T11:09:17.144Z,97124.00
2022-07-28T11:11:55.922Z,97127.00
2022-07-28T11:14:38.999Z,97125.00
2022-07-28T11:17:10.127Z,97119.00
2022-07-28T11:20:16.766Z,97108.00
2022-07-28T11:22:33.920Z,97116.00
2022-07-28T11:25:20.550Z,97114.00
2022-07-28T11:27:52.346Z,97105.00
2022-07-28T11:30:19.569Z,97102.00
2022-07-28T11:32:56.169Z,97103.00
2022-07-28T11:35:39.701Z,97111.00
2022-07-28T11:38:16.997Z,97113.00
2022-07-28T11:40:52.621Z,97110.00
2022-07-28T11:43:37.494Z,97100.00
2022-07-28T11:46:10.434Z,97098.00
2022-07-28T11:48:41.833Z,97112.00
2022-07-28T11:51:12.747Z,97096.00
2022-07-28T11:53:49.029Z,97098.00
2022-07-28T11:56:36.021Z,97097.00
2022-07-28T11:59:05.992Z,97091.00
2022-07-28T12:01:38.437Z,97094.00
2022-07-28T12:04:13.288Z,97086.00
2022-07-28T12:06:42.970Z,97090.00
2022-07-28T12:09:11.985Z,97084.00
2022-07-28T12:11:42.854Z,97085.00
2022-07-28T12:14:17.577Z,97083.00
2022-07-28T12:16:48.795Z,97081.00
2022-07-28T12:19:19.101Z,97075.00
2022-07-28T12:21:56.737Z,97068.00
2022-07-28T12:24:30.662Z,97075.00
2022-07-28T12:27:03.898Z,97075.00
2022-07-28T12:29:35.855Z,97067.00
2022-07-28T12:32:09.774Z,97068.00
2022-07-28T12:34:40.697Z,97065.00
2022-07-28T12:37:12.414Z,97062.00
2022-07-28T12:39:42.256Z,97066.00
2022-07-28T12:42:12.372Z,97064.00
2022-07-28T12:44:42.322Z,97050.00
2022-07-28T12:47:12.449Z,97059.00
2022-07-28T12:49:45.388Z,97050.00
2022-07-28T12:52:30.237Z,97043.00
2022-07-28T12:54:58.615Z,97042.00
2022-07-28T12:57:51.639Z,97038.00
2022-07-28T13:00:21.145Z,97046.00
2022-07-28T13:02:52.097Z,97045.00
2022-07-28T13:05:33.063Z,97042.00
2022-07-28T13:08:05.966Z,97043.00
2022-07-28T13:10:33.505Z,97035.00
2022-07-28T13:13:07.555Z,97040.00
2022-07-28T13:15:36.829Z,97027.00
2022-07-28T13:18:05.012Z,97033.00
2022-07-28T13:20:48.787Z,97033.00
2022-07-28T13:23:15.780Z,97017.00
2022-07-28T13:25:42.717Z,97023.00
2022-07-28T13:28:23.862Z,97028.00
2022-07-28T13:30:50.758Z,97025.00
2022-07-28T13:33:18.298Z,97024.00
2022-07-28T13:35:47.213Z,97023.00
2022-07-28T13:38:14.388Z,97030.00
2022-07-28T13:40:42.030Z,97020.00
2022-07-28T13:43:11.363Z,97023.00
2022-07-28T13:45:39.905Z,97013.00
2022-07-28T13:48:07.938Z,97017.00
2022-07-28T13:50:35.004Z,97013.00
2022-07-28T13:53:01.987Z,97010.00
2022-07-28T13:55:30.470Z,97014.00
2022-07-28T13:57:57.318Z,97000.00
2022-07-28T14:00:24.523Z,97001.00
2022-07-28T14:02:51.680Z,96998.00
2022-07-28T14:05:18.849Z,96990.00
2022-07-28T14:07:48.244Z,96992.00
2022-07-28T14:10:18.134Z,96990.00
2022-07-28T14:12:46.476Z,96988.00
2022-07-28T14:15:14.916Z,96986.00
2022-07-28T14:17:43.919Z,96989.00
2022-07-28T14:20:16.238Z,96986.00
2022-07-28T14:22:46.651Z,96991.00
2022-07-28T14:25:21.250Z,96985.00
2022-07-28T14:27:49.769Z,96988.00
2022-07-28T14:30:17.116Z,96986.00
2022-07-28T14:32:44.371Z,96975.00
2022-07-28T14:35:11.800Z,96979.00
2022-07-28T14:38:15.803Z,96981.00
2022-07-28T14:40:26.015Z,96986.00
2022-07-28T14:42:52.902Z,96984.00
2022-07-28T14:45:19.880Z,96979.00
2022-07-28T14:47:46.750Z,96986.00
2022-07-28T14:50:14.239Z,96980.00
2022-07-28T14:52:44.809Z,96986.00
2022-07-28T14:55:12.864Z,96978.00
2022-07-28T14:57:50.014Z,96977.00
2022-07-28T15:00:23.947Z,96977.00
2022-07-28T15:02:52.909Z,96988.00
2022-07-28T15:05:21.439Z,96975.00
2022-07-28T15:07:49.440Z,96974.00
2022-07-28T15:10:16.620Z,96976.00
2022-07-28T15:12:43.645Z,96965.00
2022-07-28T15:15:11.308Z,96975.00
2022-07-28T15:17:38.309Z,96966.00
2022-07-28T15:20:07.196Z,96967.00
2022-07-28T15:22:35.253Z,96961.00
2022-07-28T15:25:02.655Z,96975.00
2022-07-28T15:27:33.153Z,96971.00
2022-07-28T15:30:02.957Z,96960.00
2022-07-28T15:32:31.394Z,96970.00
2022-07-28T15:34:59.166Z,96968.00
2022-07-28T15:37:27.910Z,96962.00
2022-07-28T15:39:54.780Z,96960.00
2022-07-28T15:42:21.671Z,96953.00
2022-07-28T15:44:49.250Z,96958.00
2022-07-28T15:47:16.930Z,96952.00
2022-07-28T15:49:43.767Z,96954.00
2022-07-28T15:52:10.681Z,96953.00
2022-07-28T15:54:37.645Z,96947.00
2022-07-28T15:57:04.612Z,96946.00
2022-07-28T15:59:49.973Z,96948.00
2022-07-28T16:02:18.795Z,96939.00
2022-07-28T16:04:51.475Z,96947.00
2022-07-28T16:07:24.170Z,96942.00
2022-07-28T16:09:54.105Z,96937.00
2022-07-28T16:12:25.300Z,96939.00
2022-07-28T16:14:53.942Z,96936.00
2022-07-28T16:17:22.757Z,96941.00
2022-07-28T16:19:51.094Z,96939.00
2022-07-28T16:22:19.472Z,96942.00
2022-07-28T16:24:47.077Z,96935.00
2022-07-28T16:27:14.706Z,96931.00
2022-07-28T16:29:41.894Z,96928.00
2022-07-28T16:32:08.791Z,96938.00
2022-07-28T16:34:35.999Z,96924.00
2022-07-28T16:37:05.066Z,96936.00
2022-07-28T16:39:34.106Z,96934.00
2022-07-28T16:42:01.457Z,96931.00
2022-07-28T16:44:29.223Z,96925.00
2022-07-28T16:46:57.182Z,96927.00
2022-07-28T16:49:24.933Z,96929.00
2022-07-28T16:51:51.856Z,96925.00
2022-07-28T16:54:19.391Z,96928.00
2022-07-28T16:56:48.345Z,96937.00
2022-07-28T16:59:15.574Z,96938.00
2022-07-28T17:01:46.302Z,96934.00
2022-07-28T17:04:15.652Z,96932.00
2022-07-28T17:06:42.893Z,96942.00
2022-07-28T17:09:10.856Z,96928.00
2022-07-28T17:11:37.898Z,96933.00
2022-07-28T17:14:04.911Z,96932.00
2022-07-28T17:16:32.142Z,96938.00
2022-07-28T17:18:59.563Z,96932.00
2022-07-28T17:21:26.998Z,96929.00
2022-07-28T17:23:53.871Z,96934.00
2022-07-28T17:29:08.959Z,96946.00
2022-07-28T17:31:37.468Z,96949.00
2022-07-28T17:34:04.354Z,96948.00
2022-07-28T17:36:35.170Z,96953.00
2022-07-28T17:39:02.258Z,96956.00
2022-07-28T17:41:30.353Z,96963.00
2022-07-28T17:43:57.167Z,96966.00
2022-07-28T17:46:26.629Z,96962.00
2022-07-28T17:48:53.960Z,96964.00
2022-07-28T17:51:21.183Z,96963.00
2022-07-28T17:53:49.135Z,96967.00
2022-07-28T17:56:17.478Z,96968.00
2022-07-28T17:58:45.675Z,96973.00
2022-07-28T18:01:15.250Z,96971.00
2022-07-28T18:03:57.812Z,96968.00
2022-07-28T18:06:33.411Z,96977.00
2022-07-28T18:09:05.368Z,96982.00
2022-07-28T18:11:33.745Z,96981.00
2022-07-28T18:14:04.006Z,96983.00
2022-07-28T18:16:45.109Z,96970.00
2022-07-28T18:19:11.994Z,96969.00
2022-07-28T18:21:39.369Z,96976.00
2022-07-28T18:24:10.140Z,96980.00
2022-07-28T18:26:36.982Z,96977.00
2022-07-28T18:29:03.880Z,96984.00
2022-07-28T18:31:30.928Z,96977.00
2022-07-28T18:33:57.836Z,96975.00
2022-07-28T18:36:24.814Z,96979.00
2022-07-28T18:38:51.701Z,96975.00
2022-07-28T18:41:18.548Z,96981.00
2022-07-28T18:43:45.388Z,96983.00
2022-07-28T18:46:13.056Z,96984.00
2022-07-28T18:48:40.015Z,96986.00
2022-07-28T18:51:06.941Z,96987.00
2022-07-28T18:53:33.898Z,96993.00
2022-07-28T18:56:01.563Z,96987.00
2022-07-28T18:58:29.698Z,96983.00
2022-07-28T19:00:56.652Z,96992.00
2022-07-28T19:03:23.553Z,96997.00
2022-07-28T19:05:50.808Z,96996.00
2022-07-28T19:08:18.811Z,96986.00
2022-07-28T19:10:45.704Z,96991.00
2022-07-28T19:13:13.142Z,96998.00
2022-07-28T19:15:41.279Z,96996.00
2022-07-28T19:18:08.925Z,97001.00
2022-07-28T19:20:44.698Z,97014.00
2022-07-28T19:23:11.887Z,97024.00
2022-07-28T19:25:39.823Z,97021.00
2022-07-28T19:28:08.336Z,97018.00
2022-07-28T19:30:35.388Z,97023.00
2022-07-28T19:33:04.077Z,97034.00
2022-07-28T19:35:31.084Z,97035.00
2022-07-28T19:37:59.990Z,97039.00
2022-07-28T19:40:31.886Z,97038.00
2022-07-28T19:42:59.872Z,97042.00
2022-07-28T19:45:27.210Z,97043.00
2022-07-28T19:47:54.675Z,97042.00
2022-07-28T19:50:22.005Z,97046.00
2022-07-28T19:52:49.068Z,97043.00
2022-07-28T19:55:18.066Z,97051.00
2022-07-28T19:57:45.858Z,97047.00
2022-07-28T20:00:13.834Z,97038.00
2022-07-28T20:02:40.966Z,97043.00
2022-07-28T20:05:09.345Z,97048.00
2022-07-28T20:07:36.470Z,97045.00
2022-07-28T20:10:04.587Z,97048.00
2022-07-28T20:12:36.091Z,97047.00
2022-07-28T20:15:05.814Z,97046.00
2022-07-28T20:17:40.334Z,97051.00
2022-07-28T20:20:12.918Z,97043.00
2022-07-28T20:22:41.486Z,97043.00
2022-07-28T20:25:10.512Z,97044.00
2022-07-28T20:27:42.250Z,97054.00
2022-07-28T20:30:12.304Z,97057.00
2022-07-28T20:32:40.478Z,97055.00
2022-07-28T20:35:09.274Z,97063.00
2022-07-28T20:37:37.642Z,97072.00
2022-07-28T20:40:07.431Z,97075.00
2022-07-28T20:42:35.919Z,97073.00
2022-07-28T20:45:04.190Z,97065.00
2022-07-28T20:47:34.445Z,97077.00
2022-07-28T20:50:02.006Z,97071.00
2022-07-28T20:52:29.026Z,97060.00
2022-07-28T20:54:56.447Z,97060.00
2022-07-28T20:57:23.591Z,97066.00
2022-07-28T20:59:52.114Z,97067.00
2022-07-28T21:02:21.562Z,97070.00
2022-07-28T21:04:50.427Z,97080.00
2022-07-28T21:07:59.899Z,97080.00
2022-07-28T21:10:07.614Z,97091.00
2022-07-28T21:12:37.005Z,97089.00
2022-07-28T21:15:06.505Z,97091.00
2022-07-28T21:17:33.679Z,97094.00
2022-07-28T21:20:00.832Z,97088.00
2022-07-28T21:22:27.851Z,97085.00
2022-07-28T21:24:55.653Z,97085.00
2022-07-28T21:27:23.677Z,97092.00
2022-07-28T21:32:18.268Z,97091.00
2022-07-28T21:34:45.162Z,97091.00
2022-07-28T21:37:13.098Z,97082.00
2022-07-28T21:39:40.358Z,97081.00
2022-07-28T21:42:08.759Z,97093.00
2022-07-28T21:44:39.445Z,97086.00
2022-07-28T21:47:06.454Z,97092.00
2022-07-28T21:49:33.386Z,97091.00
2022-07-28T21:52:00.365Z,97092.00
2022-07-28T21:54:27.871Z,97090.00
2022-07-28T21:56:54.853Z,97093.00
2022-07-28T21:59:21.737Z,97092.00
2022-07-28T22:01:48.790Z,97097.00
2022-07-28T22:04:16.360Z,97091.00
2022-07-28T22:06:46.312Z,97101.00
2022-07-28T22:09:14.594Z,97107.00
2022-07-28T22:11:41.880Z,97117.00
2022-07-28T22:14:09.074Z,97121.00
2022-07-28T22:16:36.086Z,97125.00
2022-07-28T22:19:03.797Z,97123.00
2022-07-28T22:21:30.854Z,97125.00
2022-07-28T22:23:57.749Z,97134.00
2022-07-28T22:26:24.681Z,97128.00
2022-07-28T22:28:51.532Z,97133.00
2022-07-28T22:31:18.511Z,97141.00
2022-07-28T22:33:45.438Z,97139.00
2022-07-28T22:36:12.552Z,97138.00
2022-07-28T22:38:39.417Z,97136.00
2022-07-28T22:41:06.336Z,97135.00
2022-07-28T22:43:34.060Z,97140.00
2022-07-28T22:46:01.191Z,97131.00
2022-07-28T22:48:28.315Z,97134.00
2022-07-28T22:50:55.332Z,97145.00
2022-07-28T22:53:22.311Z,97135.00
2022-07-28T22:55:49.294Z,97139.00
2022-07-28T22:58:16.164Z,97143.00
2022-07-28T23:00:43.558Z,97135.00
2022-07-28T23:03:13.393Z,97139.00
2022-07-28T23:05:42.833Z,97138.00
2022-07-28T23:08:10.556Z,97139.00
2022-07-28T23:10:37.668Z,97136.00
2022-07-28T23:13:04.734Z,97134.00
2022-07-28T23:15:41.232Z,97135.00
2022-07-28T23:18:16.056Z,97140.00
2022-07-28T23:20:44.981Z,97132.00
2022-07-28T23:23:12.628Z,97135.00
2022-07-28T23:25:42.635Z,97128.00
2022-07-28T23:28:10.347Z,97126.00
2022-07-28T23:30:37.997Z,97119.00
2022-07-28T23:33:05.779Z,97130.00
2022-07-28T23:35:33.487Z,97130.00
2022-07-28T23:38:00.345Z,97112.00
2022-07-28T23:40:27.488Z,97122.00
2022-07-28T23:42:54.372Z,97120.00
2022-07-28T23:45:21.263Z,97113.00
2022-07-28T23:47:48.122Z,97114.00
2022-07-28T23:50:15.133Z,97114.00
2022-07-28T23:52:42.101Z,97117.00
2022-07-28T23:55:09.317Z,97114.00
2022-07-28T23:57:36.422Z,97119.00
